If you wish to contribute or participate in the discussions about articles you are invited to join SKYbrary as a registered user

 Actions

El Tepual Airport

From SKYbrary Wiki

SCTE
Airport
ICAO: SCTE – IATA: PMC
Summary
Name El Tepual Airport
Region South America and Caribbean
Territory Chile CL.gif
Location Puerto Montt, Los Lagos
Serving Puerto Montt
Elevation 89.611 m
294 ft
294 ft89.611 m
Type medium airport
Coordinates 41° 26' 19.99" S, 73° 5' 38.23" W
Runways
Designator Length Width Surface ROPS
17/35 2650 m8,694.226 ft
45 m147.638 ft
CON yes/yes


METAR
Observation SCTE 192000Z 26012KT 230V290 9999 SCT025 BKN050 10/04 Q1022 NOSIG
Station Puerto Montt
Date/Time 19 September 2019 20:00:00
Wind direction 260°
Wind speed 12 kts
Lowest cloud amount scattered clouds
Temperature 10°C
Dew point 4°C
Humidity 66%
QNH 1022 hPa
Weather condition n/a

Airport serving the tourist area of Puerto Montt, Chile. The airport is approximately 10 km5.4 nm
10,000 m
32,808.399 ft
west north west of the city.

Climatology

Temperate oceanic climate (Köppen climate classification Cfb)

Maps

Terrain

Loading map...

Airport Layout

Loading map...


Accidents & Serious Incidents at or in vicinity of SCTE

None on SKYbrary